EBLG/LGG METAR and TAF weather

Enter ICAO airport designator
Station Type Date Time Source
EBLG METAR 2022/01/23 11:20 UTC NOAA

EBLG 231120Z 15002KT 9000 BKN021 05/02 Q1036 NOSIG


Station Type Date Time Source
EBLG Decoded METAR 2022/01/23 11:20 UTC NOAA

Bierset, Belgium (EBLG) 50-39N 005-27E 178M
Jan 23, 2022 - 06:20 AM EST / 2022.01.23 1120 UTC
Wind: from the SSE (150 degrees) at 2 MPH (2 KT):0
Visibility: 5 mile(s):0
Sky conditions: mostly cloudy
Temperature: 41 F (5 C)
Dew Point: 35 F (2 C)
Relative Humidity: 80%
Pressure (altimeter): 30.59 in. Hg (1036 hPa)
ob: EBLG 231120Z 15002KT 9000 BKN021 05/02 Q1036 NOSIG
cycle: 11

Station Type Date Time Source
EBLG TAF 2022/01/23 12:29 UTC NOAA

TAF EBLG 231107Z 2312/2418 VRB03KT 7000 SCT010 BKN018 PROB30
TEMPO 2402/2409 3000 MIFG BR

Example: see airport list